Archival Weather

Chicago O'Hare International

Chicago, Illinois (KORD)

Report from: Wednesday, March 27, 2024 4:51 AM CDT
Current time: Tuesday, May 21, 2024 12:39 PM CDT

Current weather – Weather history – Daily summaries
Weather forecast

Temperature-0.6°C (30.9°F)
Wind chill-7.0°C (19.4°F)
Dew point-5.6°C (21.9°F)
Winds 15 kts (7.7 m/s, 17.3 mph) West-Southwest (240°)
Wind gusts 26 kts (13.4 m/s, 29.9 mph)
Peak wind 29 kts (14.9 m/s, 33.4 mph) West (260°) at 09:16
Visibility10 mi. (16.1 km)
Clouds Ceiling: Overcast 2,200 ft. (671 m)
Altimeter29.89 in.Hg (1012 mB)
Relative humidity69 %
Density altitude-1,819 ft. (-554 m)
Sea-level pressure101.3 kPa (1013 mB, 29.90 in.Hg)
Remarks System requires maintenance
Automated weather observing station with precipitation discriminator
Flight conditions Marginal Visual Meteorological Conditions
Raw dataKORD 270951Z 24015G26KT 10SM OVC022 M01/M06 A2989 RMK AO2 PK WND 26029/0916 SLP125 T10061056 $
An error has occurred. This application may no longer respond until reloaded. Reload 🗙